Bookmark and Share
Track history (hours):
 

Daikoku

Last reported at 2014-Apr-22 09:23 UTC. Time now 2014-Apr-23 15:35 UTC.
Position N 34°36' E 134°54'.

Length 95 m; draft 3.9 m.

Type: Cargo ship. MMSI: 431003009.

NotesDate/timePositionNaut miles runAvg speedWind from/ knotsBaromVisibWave heightAir tempDewpointWater temp
2014-Apr-22 09:23N 34°36' E 134°54'910.4
2014-Apr-22 08:33N 34°36' E 135°04'1111.3
2014-Apr-22 07:33N 34°37' E 135°18'6 5.5
2014-Apr-22 06:29N 34°38' E 135°25'0 0.0
2014-Apr-22 05:30N 34°38' E 135°25'6 6.5
2014-Apr-22 04:34N 34°40' E 135°18'2 1.5
2014-Apr-22 03:33N 34°41' E 135°17'0 0.0
2014-Apr-22 02:33N 34°41' E 135°17'5 4.6
2014-Apr-22 01:34N 34°36' E 135°16'1212.0
2014-Apr-22 00:33N 34°26' E 135°08'1111.0
2014-Apr-21 23:31N 34°17' E 134°59'1010.8
2014-Apr-21 22:34N 34°07' E 134°59'183 4.0
2014-Apr-20 01:25N 35°02' E 138°30'0 0.0
2014-Apr-20 00:31N 35°02' E 138°30'0 0.0
2014-Apr-19 23:19N 35°02' E 138°30'0 0.0
2014-Apr-19 22:31N 35°02' E 138°30'0 0.0
2014-Apr-19 21:12N 35°02' E 138°30'36 6.2
2014-Apr-19 15:18N 34°49' E 139°12'2112.1
2014-Apr-19 13:32N 35°01' E 139°33'1212.1
2014-Apr-19 12:34N 35°08' E 139°44'1110.8
2014-Apr-19 11:33N 35°19' E 139°43'7 7.2
2014-Apr-19 10:33N 35°26' E 139°41'0 0.0
2014-Apr-19 09:33N 35°26' E 139°41'2 1.5
2014-Apr-19 08:33N 35°25' E 139°42'2 1.5
2014-Apr-19 07:31N 35°24' E 139°41'0 0.0
2014-Apr-19 06:31N 35°24' E 139°41'6 6.8
2014-Apr-19 05:33N 35°29' E 139°45'0 0.2
2014-Apr-19 04:33N 35°29' E 139°45'1111.1
2014-Apr-19 03:33N 35°18' E 139°45'1111.4
2014-Apr-19 02:33N 35°07' E 139°45'1212.3
2014-Apr-19 01:33N 34°58' E 139°35'1312.7
2014-Apr-19 00:32N 34°51' E 139°22'44 1.3
2014-Apr-17 16:08N 35°02' E 138°31'40 7.1
2014-Apr-17 10:27N 34°53' E 139°18'1311.0
2014-Apr-17 09:15N 35°00' E 139°32'811.5
2014-Apr-17 08:33N 35°05' E 139°40'1110.8
2014-Apr-17 07:33N 35°14' E 139°46'1010.4
2014-Apr-17 06:33N 35°24' E 139°41'1 0.7
2014-Apr-17 05:33N 35°24' E 139°42'1010.2
2014-Apr-17 04:33N 35°31' E 139°50'0 0.1
2014-Apr-17 03:29N 35°31' E 139°50'7 7.2
2014-Apr-17 02:33N 35°36' E 139°46'0 0.0
2014-Apr-17 01:33N 35°36' E 139°46'0 0.0
2014-Apr-17 00:33N 35°36' E 139°46'0 0.0
2014-Apr-16 23:28N 35°36' E 139°46'6 6.9
2014-Apr-16 22:33N 35°33' E 139°53'0 0.0
2014-Apr-16 21:32N 35°33' E 139°53'0 0.0
2014-Apr-16 20:32N 35°33' E 139°53'0 0.0
2014-Apr-16 19:26N 35°33' E 139°53'0 0.0
2014-Apr-16 18:29N 35°33' E 139°53'0 0.0
2014-Apr-16 17:26N 35°33' E 139°53'6 7.2
2014-Apr-16 16:34N 35°27' E 139°50'1110.8
2014-Apr-16 15:33N 35°17' E 139°46'1111.2
2014-Apr-16 14:34N 35°06' E 139°45'1211.8
2014-Apr-16 13:33N 34°58' E 139°35'1212.1
2014-Apr-16 12:33N 34°51' E 139°22'216 8.6
2014-Apr-15 11:32N 34°23' E 135°02'1111.3
2014-Apr-15 10:34N 34°31' E 135°12'8 8.4
2014-Apr-15 09:33N 34°39' E 135°15'1 0.4
2014-Apr-15 07:29N 34°40' E 135°14'0 0.0
2014-Apr-15 06:29N 34°40' E 135°14'0 0.0
2014-Apr-15 03:30N 34°40' E 135°14'0 0.0
2014-Apr-15 02:30N 34°40' E 135°14'0 0.0
2014-Apr-15 01:30N 34°40' E 135°14'0 0.0
2014-Apr-15 00:30N 34°40' E 135°14'0 0.0
2014-Apr-14 23:30N 34°40' E 135°14'0 0.0
2014-Apr-14 22:30N 34°40' E 135°14'0 0.0
2014-Apr-14 21:30N 34°40' E 135°14'3 3.3
2014-Apr-14 20:32N 34°38' E 135°17'6 5.7
2014-Apr-14 19:33N 34°33' E 135°14'1212.1
2014-Apr-14 18:32N 34°23' E 135°04'1110.8
2014-Apr-14 17:33N 34°14' E 134°59'1111.4
2014-Apr-14 16:34N 34°02' E 134°60'214 4.6
2014-Apr-12 18:30N 34°49' E 139°13'1212.5
2014-Apr-12 17:30N 34°56' E 139°26'1212.4
2014-Apr-12 16:33N 35°03' E 139°37'1212.1
2014-Apr-12 15:33N 35°13' E 139°46'1111.2
2014-Apr-12 14:33N 35°23' E 139°42'3 2.9
2014-Apr-12 13:32N 35°26' E 139°41'0 0.0
2014-Apr-12 12:32N 35°26' E 139°41'2 1.7
2014-Apr-12 11:33N 35°26' E 139°43'2 2.4
2014-Apr-12 10:32N 35°24' E 139°45'0 0.0
2014-Apr-12 09:32N 35°24' E 139°45'  

Dump ship's entire track history

sailing weather and tide predictions

Daikoku — JD3247 — position and weather